Time;durP1;ratioP1;P1;durP2;ratioP2;P2;SDS_P1;SDS_P2;PMS_P1;PMS_P2;Temp;Humidity;BMP_temperature;BMP_pressure;BME280_temperature;BME280_humidity;BME280_pressure;Samples;Min_cycle;Max_cycle;Signal;HPM_P1;HPM_P2
2022/11/29 00:00:00;;;;;;;50.70;20.38;;;;;;;5.48;100.00;101279.56;5095215;28;20109;-89
2022/11/29 00:02:30;;;;;;;44.80;18.58;;;;;;;5.41;100.00;101273.19;5095825;28;20093;-89
2022/11/29 00:04:57;;;;;;;42.92;18.70;;;;;;;5.40;100.00;101271.50;5078059;28;20036;-89
2022/11/29 00:07:25;;;;;;;45.70;18.10;;;;;;;5.40;100.00;101271.50;5096701;28;20074;-89
2022/11/29 00:09:56;;;;;;;45.63;19.23;;;;;;;5.43;100.00;101272.03;5096198;28;20028;-89
2022/11/29 00:12:24;;;;;;;42.88;19.67;;;;;;;5.44;100.00;101273.69;5094586;28;20032;-89
2022/11/29 00:14:52;;;;;;;48.15;19.55;;;;;;;5.45;100.00;101266.47;5096375;28;20032;-88
2022/11/29 00:17:27;;;;;;;49.40;20.63;;;;;;;5.45;100.00;101270.00;5094808;28;20048;-89
2022/11/29 00:19:52;;;;;;;51.25;20.05;;;;;;;5.48;100.00;101279.56;5094950;28;20028;-89
2022/11/29 00:22:28;;;;;;;;;;;;;;;;;;;;;
2022/11/29 00:24:56;;;;;;;58.75;20.13;;;;;;;5.45;100.00;101285.31;5096356;28;20355;-89
2022/11/29 00:27:31;;;;;;;75.32;19.92;;;;;;;5.41;100.00;101290.16;5078106;28;20036;-89
2022/11/29 00:29:59;;;;;;;59.58;19.90;;;;;;;5.39;100.00;101280.63;5094663;28;20027;-89
2022/11/29 00:32:27;;;;;;;41.20;18.77;;;;;;;5.40;100.00;101279.56;5094217;28;20052;-89
2022/11/29 00:34:52;;;;;;;48.17;19.27;;;;;;;5.43;100.00;101282.78;5094313;28;20043;-89
2022/11/29 00:37:27;;;;;;;46.53;19.23;;;;;;;5.47;100.00;101290.50;5093763;28;20418;-89
2022/11/29 00:40:02;;;;;;;47.10;20.25;;;;;;;5.47;100.00;101282.44;5062272;28;20288;-89
2022/11/29 00:42:41;;;;;;;46.30;19.55;;;;;;;5.49;100.00;101286.63;5093316;28;20097;-88
2022/11/29 00:45:15;;;;;;;57.47;19.75;;;;;;;5.52;100.00;101290.81;5076817;28;20052;-89
2022/11/29 00:47:43;;;;;;;74.97;20.52;;;;;;;5.46;100.00;101284.28;5094858;28;20452;-89
2022/11/29 00:50:14;;;;;;;75.88;20.45;;;;;;;5.43;100.00;101285.47;5093650;28;20070;-89
2022/11/29 00:52:49;;;;;;;76.97;19.98;;;;;;;5.46;100.00;101289.66;5095097;28;20085;-89
2022/11/29 00:55:19;;;;;;;56.63;19.27;;;;;;;5.38;100.00;101279.75;5095807;28;20346;-89
2022/11/29 00:57:58;;;;;;;62.65;20.25;;;;;;;5.40;100.00;101287.66;5093930;28;20043;-89
2022/11/29 01:00:43;;;;;;;43.90;18.55;;;;;;;5.41;100.00;101284.78;5095675;28;20036;-90
2022/11/29 01:03:13;;;;;;;41.30;18.55;;;;;;;5.39;100.00;101277.91;5060949;28;20074;-89
2022/11/29 01:05:42;;;;;;;40.05;18.05;;;;;;;5.40;100.00;101282.28;5093307;28;20036;-90
2022/11/29 01:08:19;;;;;;;40.63;18.98;;;;;;;5.42;100.00;101280.28;5094231;28;20027;-89
2022/11/29 01:10:59;;;;;;;41.97;18.67;;;;;;;5.37;100.00;101280.75;5093461;28;20059;-89
2022/11/29 01:13:30;;;;;;;37.08;16.85;;;;;;;5.35;100.00;101274.72;5094596;28;20063;-90
2022/11/29 01:15:59;;;;;;;44.05;19.73;;;;;;;5.32;100.00;101283.13;5093348;28;20059;-89
2022/11/29 01:18:24;;;;;;;40.42;17.73;;;;;;;5.29;100.00;101288.84;5076937;28;20494;-89
2022/11/29 01:21:02;;;;;;;56.00;18.42;;;;;;;5.29;100.00;101298.78;5094366;28;20028;-89
2022/11/29 01:23:32;;;;;;;41.40;17.80;;;;;;;5.21;100.00;101294.22;5094177;28;20024;-89
2022/11/29 01:26:24;;;;;;;37.97;17.20;;;;;;;5.22;100.00;101294.06;5077067;28;20024;-89
2022/11/29 01:29:01;;;;;;;42.22;18.15;;;;;;;5.17;100.00;101291.06;5093621;28;20529;-89
2022/11/29 01:31:54;;;;;;;39.05;17.67;;;;;;;5.20;100.00;101292.56;5092813;28;20080;-89
2022/11/29 01:34:24;;;;;;;38.83;17.55;;;;;;;5.19;100.00;101296.25;5093824;28;20032;-89
2022/11/29 01:36:50;;;;;;;38.72;18.00;;;;;;;5.29;100.00;101309.56;5076445;28;20032;-89
2022/11/29 01:39:20;;;;;;;38.63;17.87;;;;;;;5.28;100.00;101308.69;5059640;28;20039;-89
2022/11/29 01:41:49;;;;;;;46.40;18.70;;;;;;;5.26;100.00;101300.78;5076955;28;20123;-89
2022/11/29 01:44:16;;;;;;;39.50;19.60;;;;;;;5.32;100.00;101314.59;5077135;28;20024;-89
2022/11/29 01:46:47;;;;;;;43.00;18.73;;;;;;;5.29;100.00;101313.06;5093929;28;20020;-89
2022/11/29 01:49:14;;;;;;;46.17;18.13;;;;;;;5.33;100.00;101321.63;5075060;28;20035;-89
2022/11/29 01:51:53;;;;;;;48.17;18.23;;;;;;;5.22;100.00;101318.28;5094327;28;20527;-89
2022/11/29 01:54:30;;;;;;;48.47;19.45;;;;;;;5.21;100.00;101318.44;5094668;28;20031;-89
2022/11/29 01:57:06;;;;;;;54.03;20.17;;;;;;;5.19;100.00;101328.53;5075762;28;20160;-89
2022/11/29 01:59:36;;;;;;;57.90;19.83;;;;;;;5.19;100.00;101331.22;5093766;28;20028;-89
2022/11/29 02:02:15;;;;;;;118.88;20.70;;;;;;;5.23;100.00;101336.09;5092767;28;20031;-89
2022/11/29 02:04:44;;;;;;;80.82;20.55;;;;;;;5.22;100.00;101330.91;5092991;28;20036;-89
2022/11/29 02:07:14;;;;;;;78.82;20.10;;;;;;;5.22;100.00;101334.41;5092566;28;20228;-89
2022/11/29 02:09:40;;;;;;;88.70;19.65;;;;;;;5.21;100.00;101339.97;5075979;28;20028;-88
2022/11/29 02:12:26;;;;;;;113.95;20.55;;;;;;;5.23;100.00;101354.94;5092652;28;20054;-89
2022/11/29 02:15:23;;;;;;;99.32;19.88;;;;;;;5.13;100.00;101346.19;5092654;28;20036;-89
2022/11/29 02:18:01;;;;;;;61.47;20.10;;;;;;;5.17;100.00;101344.03;5092588;28;20032;-89
2022/11/29 02:20:53;;;;;;;144.10;21.98;;;;;;;5.21;100.00;101364.19;5093503;28;20122;-89
2022/11/29 02:23:31;;;;;;;126.68;19.77;;;;;;;5.21;100.00;101359.66;5093879;28;20115;-89
2022/11/29 02:26:17;;;;;;;126.78;19.77;;;;;;;5.15;100.00;101351.41;5093285;28;20039;-89
2022/11/29 02:29:33;;;;;;;;;;;;;;;;;;;;;
2022/11/29 02:32:25;;;;;;;122.72;21.63;;;;;;;5.12;100.00;101347.19;5093474;28;20048;-89
2022/11/29 02:34:57;;;;;;;108.18;19.85;;;;;;;5.16;100.00;101358.47;5093434;28;20039;-89
2022/11/29 02:37:39;;;;;;;85.10;19.98;;;;;;;5.13;100.00;101348.06;5093739;28;20023;-89
2022/11/29 02:40:29;;;;;;;125.20;20.75;;;;;;;5.10;100.00;101341.97;5076153;28;20475;-89
2022/11/29 02:43:25;;;;;;;92.13;20.00;;;;;;;5.07;100.00;101346.88;5093594;28;20480;-89
2022/11/29 02:46:26;;;;;;;80.25;20.52;;;;;;;5.01;100.00;101351.06;5092003;28;20063;-89
2022/11/29 02:48:59;;;;;;;117.50;20.20;;;;;;;4.98;100.00;101355.94;5093591;28;20035;-89
2022/11/29 02:51:42;;;;;;;110.47;19.95;;;;;;;4.92;100.00;101349.38;5093775;28;20102;-89
2022/11/29 02:54:30;;;;;;;93.13;20.58;;;;;;;4.90;100.00;101351.38;5092145;28;20387;-89
2022/11/29 02:57:06;;;;;;;90.18;19.67;;;;;;;4.86;100.00;101358.09;5093040;28;20085;-89
2022/11/29 02:59:38;;;;;;;94.40;20.05;;;;;;;4.87;100.00;101365.16;5093086;28;20028;-90
2022/11/29 03:02:30;;;;;;;86.15;20.05;;;;;;;4.84;100.00;101362.78;5095731;28;20036;-89
2022/11/29 03:05:32;;;;;;;69.97;18.92;;;;;;;4.81;100.00;101363.13;5095778;28;20032;-89
2022/11/29 03:08:33;;;;;;;65.63;18.20;;;;;;;4.74;100.00;101361.09;5096265;28;20463;-89
2022/11/29 03:11:25;;;;;;;49.03;18.67;;;;;;;4.73;100.00;101375.53;5096281;28;20505;-89
2022/11/29 03:14:24;;;;;;;37.10;18.55;;;;;;;4.71;100.00;101372.19;5096124;28;20036;-89
2022/11/29 03:16:49;;;;;;;47.88;18.25;;;;;;;4.70;100.00;101375.03;5096189;28;20067;-89
2022/11/29 03:19:36;;;;;;;41.90;17.92;;;;;;;4.72;100.00;101376.56;5095641;28;20512;-89
2022/11/29 03:22:19;;;;;;;48.63;18.30;;;;;;;4.72;100.00;101379.25;5096243;28;20115;-89
2022/11/29 03:25:03;;;;;;;71.65;20.08;;;;;;;4.71;100.00;101392.81;5095721;28;20126;-88
2022/11/29 03:27:43;;;;;;;50.88;18.90;;;;;;;4.68;100.00;101388.63;5095924;28;20031;-89
2022/11/29 03:30:18;;;;;;;64.72;19.60;;;;;;;4.67;100.00;101386.13;5097163;28;20416;-89
2022/11/29 03:33:13;;;;;;;52.25;18.48;;;;;;;4.64;100.00;101389.13;5096366;28;20044;-89
2022/11/29 03:35:55;;;;;;;56.10;17.90;;;;;;;4.61;100.00;101386.78;5095158;28;20054;-89
2022/11/29 03:38:42;;;;;;;77.45;19.00;;;;;;;4.60;100.00;101395.84;5096430;28;20157;-89
2022/11/29 03:41:38;;;;;;;76.43;19.65;;;;;;;4.56;100.00;101403.34;5095612;28;20414;-89
2022/11/29 03:44:35;;;;;;;83.55;18.60;;;;;;;4.47;100.00;101398.97;5094925;28;20028;-89
2022/11/29 03:47:10;;;;;;;107.30;18.25;;;;;;;4.42;100.00;101401.31;5095182;28;20025;-89
2022/11/29 03:49:48;;;;;;;87.37;18.00;;;;;;;4.41;100.00;101399.63;5096805;28;20111;-90
2022/11/29 03:52:34;;;;;;;87.05;19.15;;;;;;;4.37;100.00;101405.31;5095013;28;20123;-89
2022/11/29 03:55:48;;;;;;;;;;;;;;;;;;;;;
2022/11/29 03:59:04;;;;;;;82.20;18.40;;;;;;;4.37;100.00;101410.69;5014803;28;20516;-89
2022/11/29 04:01:47;;;;;;;100.22;17.65;;;;;;;4.32;100.00;101418.38;5075938;28;20028;-89
2022/11/29 04:04:37;;;;;;;114.03;17.33;;;;;;;4.31;100.00;101419.41;5095268;28;20035;-89
2022/11/29 04:07:24;;;;;;;84.25;17.77;;;;;;;4.33;100.00;101421.91;5096377;28;20059;-89
2022/11/29 04:10:10;;;;;;;82.20;17.70;;;;;;;4.33;100.00;101422.75;5096149;28;20090;-89
2022/11/29 04:13:15;;;;;;;74.13;17.05;;;;;;;4.29;100.00;101417.88;5093742;28;20503;-89
2022/11/29 04:15:58;;;;;;;83.53;17.38;;;;;;;4.33;100.00;101438.03;5095520;28;20024;-89
2022/11/29 04:18:53;;;;;;;92.47;18.13;;;;;;;4.26;100.00;101429.75;5095016;28;20035;-89
2022/11/29 04:22:04;;;;;;;68.40;17.35;;;;;;;4.31;100.00;101432.81;5095667;28;20032;-88
2022/11/29 04:24:58;;;;;;;77.95;16.63;;;;;;;4.36;100.00;101441.22;5077004;28;20539;-89
2022/11/29 04:27:37;;;;;;;85.05;17.80;;;;;;;4.41;100.00;101437.22;5095551;28;20032;-89
2022/11/29 04:30:14;;;;;;;96.20;17.52;;;;;;;4.31;100.00;101434.66;5095245;28;20119;-89
2022/11/29 04:33:29;;;;;;;;;;;;;;;;;;;;;
2022/11/29 04:36:45;;;;;;;74.50;17.00;;;;;;;4.24;100.00;101442.53;5096200;28;20020;-89
2022/11/29 04:39:35;;;;;;;90.93;16.88;;;;;;;4.28;100.00;101441.22;5093867;28;20439;-89
2022/11/29 04:42:30;;;;;;;81.22;16.85;;;;;;;4.26;100.00;101439.69;5095031;28;20035;-89
2022/11/29 04:45:13;;;;;;;58.00;15.45;;;;;;;4.17;100.00;101438.78;5092530;28;20070;-89
2022/11/29 04:48:16;;;;;;;47.57;16.00;;;;;;;4.16;100.00;101446.00;5094643;28;20098;-88
2022/11/29 04:50:58;;;;;;;69.60;15.60;;;;;;;4.10;100.00;101443.09;5077986;28;20032;-88
2022/11/29 04:53:34;;;;;;;58.70;16.42;;;;;;;4.07;100.00;101444.25;5094359;28;20028;-88
2022/11/29 04:56:38;;;;;;;62.75;15.07;;;;;;;4.07;100.00;101449.63;5095015;28;20035;-88
2022/11/29 04:59:12;;;;;;;52.65;16.08;;;;;;;4.03;100.00;101440.19;5095267;28;20028;-89
2022/11/29 05:02:08;;;;;;;73.97;16.00;;;;;;;4.08;100.00;101451.31;5094054;28;20024;-88
2022/11/29 05:05:19;;;;;;;45.65;15.50;;;;;;;4.00;100.00;101454.78;5094031;28;20410;-88
2022/11/29 05:07:45;;;;;;;54.00;15.15;;;;;;;3.96;100.00;101472.22;5012810;28;20100;-88
2022/11/29 05:10:10;;;;;;;53.73;15.50;;;;;;;3.99;100.00;101477.28;5012917;28;20042;-88
2022/11/29 05:12:53;;;;;;;38.37;15.53;;;;;;;3.99;100.00;101463.84;5053274;28;20372;-89
2022/11/29 05:15:43;;;;;;;52.55;16.27;;;;;;;4.01;100.00;101474.44;5094345;28;20119;-89
2022/11/29 05:18:55;;;;;;;46.65;16.48;;;;;;;4.06;100.00;101474.81;5093710;28;20036;-88
2022/11/29 05:21:56;;;;;;;60.28;15.77;;;;;;;4.14;100.00;101487.44;5093407;28;20032;-88
2022/11/29 05:24:38;;;;;;;45.28;15.90;;;;;;;4.10;100.00;101486.91;5093413;28;20479;-88
2022/11/29 05:27:43;;;;;;;55.87;16.43;;;;;;;4.19;100.00;101485.97;5093580;28;20062;-88
2022/11/29 05:30:21;;;;;;;48.75;16.02;;;;;;;4.24;100.00;101498.06;5092835;28;20028;-89
2022/11/29 05:33:10;;;;;;;47.65;15.82;;;;;;;4.31;100.00;101501.81;5075739;28;20060;-88
2022/11/29 05:35:52;;;;;;;34.25;16.15;;;;;;;4.34;100.00;101510.41;5093355;28;20035;-88
2022/11/29 05:38:50;;;;;;;48.67;16.48;;;;;;;4.35;100.00;101492.44;5093094;28;20056;-88
2022/11/29 05:41:25;;;;;;;46.07;15.37;;;;;;;4.36;100.00;101489.59;5093134;28;20057;-89
2022/11/29 05:44:06;;;;;;;46.17;16.33;;;;;;;4.44;100.00;101509.47;5093856;28;20101;-88
2022/11/29 05:47:00;;;;;;;52.30;16.05;;;;;;;4.41;100.00;101505.25;5094269;28;20511;-88
2022/11/29 05:50:04;;;;;;;37.78;16.10;;;;;;;4.49;100.00;101516.06;5092903;28;20046;-88
2022/11/29 05:52:54;;;;;;;67.63;16.48;;;;;;;4.49;100.00;101521.44;5078993;28;20042;-89
2022/11/29 05:55:47;;;;;;;50.13;16.37;;;;;;;4.54;100.00;101532.53;5093530;28;20463;-88
2022/11/29 05:58:27;;;;;;;59.22;16.35;;;;;;;4.50;100.00;101515.06;5093086;28;20032;-88
2022/11/29 06:01:27;;;;;;;39.33;16.55;;;;;;;4.53;100.00;101520.13;5092660;28;20036;-88
2022/11/29 06:04:16;;;;;;;31.52;15.77;;;;;;;4.60;100.00;101523.00;5094332;28;20448;-88
2022/11/29 06:06:59;;;;;;;89.68;17.42;;;;;;;4.63;100.00;101530.72;5092889;28;20388;-88
2022/11/29 06:09:39;;;;;;;74.00;16.90;;;;;;;4.54;100.00;101524.47;5092989;28;20123;-88
2022/11/29 06:12:23;;;;;;;56.88;15.93;;;;;;;4.55;100.00;101528.84;5092836;28;20024;-89
2022/11/29 06:15:11;;;;;;;54.00;17.50;;;;;;;4.60;100.00;101551.72;5092749;28;20028;-89
2022/11/29 06:17:45;;;;;;;56.10;15.90;;;;;;;4.57;100.00;101560.94;5093121;28;20456;-89
2022/11/29 06:20:42;;;;;;;87.35;16.55;;;;;;;4.54;100.00;101563.94;5094341;28;20095;-89
2022/11/29 06:23:40;;;;;;;40.03;15.77;;;;;;;4.55;100.00;101557.56;5093759;28;20024;-88
2022/11/29 06:26:43;;;;;;;78.47;16.40;;;;;;;4.56;100.00;101570.00;5092858;28;20032;-88
2022/11/29 06:29:22;;;;;;;52.35;15.70;;;;;;;4.52;100.00;101568.66;5085228;28;20134;-89
2022/11/29 06:32:07;;;;;;;75.63;16.42;;;;;;;4.50;100.00;101563.44;5093565;28;20075;-87
2022/11/29 06:34:51;;;;;;;81.53;16.40;;;;;;;4.47;100.00;101568.25;5075321;28;20043;-88
2022/11/29 06:37:50;;;;;;;;;;;;;;;;;;;;;
2022/11/29 06:40:19;;;;;;;84.15;16.02;;;;;;;4.56;100.00;101588.81;5098351;28;20020;-88
2022/11/29 06:42:47;;;;;;;121.93;18.55;;;;;;;4.46;100.00;101583.56;5080089;28;20115;-88
2022/11/29 06:45:34;;;;;;;;;;;;;;;;;;;;;
2022/11/29 06:51:56;;;;;;;57.73;16.03;;;;;;;4.59;100.00;101596.56;5055052;28;20461;-88
2022/11/29 06:54:44;;;;;;;79.68;16.35;;;;;;;4.64;100.00;101596.94;5085658;28;20051;-87
2022/11/29 06:57:49;;;;;;;120.15;18.98;;;;;;;4.69;100.00;101599.97;5079624;28;20447;-90
2022/11/29 07:00:27;;;;;;;46.55;17.85;;;;;;;4.78;100.00;101610.81;5046311;28;20043;-87
2022/11/29 07:03:11;;;;;;;43.45;16.73;;;;;;;4.85;100.00;101615.38;5080967;28;20028;-86
2022/11/29 07:05:39;;;;;;;60.20;16.33;;;;;;;4.84;100.00;101611.03;5078594;28;20082;-87
2022/11/29 07:08:18;;;;;;;59.88;18.05;;;;;;;4.86;100.00;101608.19;5061805;28;20057;-86
2022/11/29 07:10:52;;;;;;;64.25;17.50;;;;;;;4.86;100.00;101605.50;5062506;28;20047;-87
2022/11/29 07:13:23;;;;;;;93.88;17.42;;;;;;;4.89;100.00;101624.81;5096683;28;20118;-87
2022/11/29 07:16:08;;;;;;;59.47;16.95;;;;;;;4.92;100.00;101621.81;5078674;28;20036;-87
2022/11/29 07:18:50;;;;;;;46.70;16.80;;;;;;;4.88;100.00;101611.53;5078712;28;20039;-87
2022/11/29 07:21:47;;;;;;;43.17;17.38;;;;;;;4.96;100.00;101629.56;5077893;28;20035;-87
2022/11/29 07:24:21;;;;;;;40.90;16.85;;;;;;;4.84;100.00;101619.09;5097422;28;20027;-87
2022/11/29 07:27:10;;;;;;;33.08;16.63;;;;;;;4.85;100.00;101628.00;5096363;28;20460;-87
2022/11/29 07:30:01;;;;;;;31.83;16.73;;;;;;;4.84;100.00;101637.06;5078588;28;20032;-87
2022/11/29 07:32:52;;;;;;;36.03;15.50;;;;;;;4.86;100.00;101643.97;5078285;28;20395;-87
2022/11/29 07:35:47;;;;;;;35.47;15.55;;;;;;;4.82;100.00;101639.06;5096842;28;20452;-87
2022/11/29 07:38:46;;;;;;;30.52;15.45;;;;;;;4.83;100.00;101646.13;5095290;28;20028;-87
2022/11/29 07:41:42;;;;;;;40.58;16.23;;;;;;;4.89;100.00;101658.94;5095474;28;20460;-87
2022/11/29 07:44:20;;;;;;;31.85;16.15;;;;;;;4.87;100.00;101661.78;5096621;28;20020;-86
2022/11/29 07:46:55;;;;;;;;;;;;;;;;;;;;;
2022/11/29 07:49:24;;;;;;;37.75;15.88;;;;;;;4.89;100.00;101659.78;5096233;28;20038;-87
2022/11/29 07:51:49;;;;;;;36.55;17.13;;;;;;;4.86;100.00;101661.97;5095175;28;20115;-87
2022/11/29 07:54:19;;;;;;;34.37;16.23;;;;;;;4.89;100.00;101656.25;5094781;28;20127;-87
2022/11/29 07:56:50;;;;;;;40.47;16.63;;;;;;;4.86;100.00;101653.88;5094153;28;20274;-87
2022/11/29 07:59:25;;;;;;;47.20;17.38;;;;;;;4.95;100.00;101669.06;5095187;28;20024;-86
2022/11/29 08:02:06;;;;;;;43.00;16.45;;;;;;;4.95;100.00;101665.53;5074628;28;20048;-87
2022/11/29 08:04:31;;;;;;;40.00;15.73;;;;;;;4.94;100.00;101661.16;5095113;28;20119;-86
2022/11/29 08:07:00;;;;;;;44.77;16.53;;;;;;;4.92;100.00;101656.78;5094687;28;20128;-88
2022/11/29 08:09:26;;;;;;;46.58;17.50;;;;;;;4.95;100.00;101663.69;5077576;28;20027;-87
2022/11/29 08:11:51;;;;;;;46.73;17.50;;;;;;;4.94;100.00;101664.69;5094794;28;20031;-87
2022/11/29 08:14:17;;;;;;;41.17;17.40;;;;;;;5.00;100.00;101664.03;5078553;28;20326;-88
2022/11/29 08:16:45;;;;;;;57.30;18.23;;;;;;;5.06;100.00;101674.19;5094341;28;20037;-87
2022/11/29 08:19:17;;;;;;;52.80;16.50;;;;;;;5.10;100.00;101675.53;5078205;28;20074;-87
2022/11/29 08:21:45;;;;;;;52.20;17.80;;;;;;;5.12;100.00;101683.44;5078409;28;20044;-87
2022/11/29 08:24:16;;;;;;;50.58;17.83;;;;;;;5.05;100.00;101666.28;5095660;28;20036;-87
2022/11/29 08:26:44;;;;;;;57.63;17.88;;;;;;;5.05;100.00;101675.19;5094929;28;20168;-87
2022/11/29 08:29:13;;;;;;;52.65;17.77;;;;;;;5.06;100.00;101674.19;5078394;28;20047;-87
2022/11/29 08:31:48;;;;;;;48.60;18.00;;;;;;;5.10;100.00;101683.59;5093715;28;20044;-87
2022/11/29 08:34:19;;;;;;;48.58;17.50;;;;;;;5.13;100.00;101687.84;5095821;28;20476;-87
2022/11/29 08:36:53;;;;;;;56.92;18.00;;;;;;;5.22;100.00;101694.09;5095530;28;20468;-87
2022/11/29 08:42:47;;;;;;;46.20;18.38;;;;;;;5.30;100.00;101694.16;5095489;28;20039;-88
2022/11/29 08:45:16;;;;;;;65.53;17.17;;;;;;;5.20;100.00;101682.69;5094016;28;20040;-87
2022/11/29 08:47:43;;;;;;;64.78;18.02;;;;;;;5.16;100.00;101692.06;5093865;28;20036;-88
2022/11/29 08:50:27;;;;;;;69.55;18.08;;;;;;;5.14;100.00;101688.66;5094165;28;20031;-87
2022/11/29 08:56:03;;;;;;;48.45;18.23;;;;;;;5.22;100.00;101696.78;5095691;28;20058;-88
2022/11/29 09:01:50;;;;;;;62.00;19.40;;;;;;;5.35;100.00;101704.44;5095290;28;20131;-87
2022/11/29 09:07:40;;;;;;;76.00;19.30;;;;;;;5.46;100.00;101698.75;5072336;28;20039;-87
2022/11/29 09:13:14;;;;;;;70.43;19.70;;;;;;;5.49;100.00;101705.69;5052363;28;20416;-88
2022/11/29 09:15:45;;;;;;;88.22;19.83;;;;;;;5.55;100.00;101713.97;5054983;28;20060;-87
2022/11/29 09:18:14;;;;;;;71.22;19.67;;;;;;;5.73;100.00;101713.03;5055305;28;20060;-87
2022/11/29 09:20:42;;;;;;;63.60;18.35;;;;;;;5.86;100.00;101712.56;5055437;28;20040;-87
2022/11/29 09:23:09;;;;;;;91.72;20.58;;;;;;;5.88;100.00;101714.09;5071711;28;20093;-87
2022/11/29 09:25:47;;;;;;;;;;;;;;;;;;;;;
2022/11/29 09:28:26;;;;;;;81.47;18.60;;;;;;;5.94;100.00;101724.22;5040611;28;20040;-88
2022/11/29 09:30:51;;;;;;;71.07;19.00;;;;;;;6.07;100.00;101733.72;5093465;28;20032;-87
2022/11/29 09:33:29;;;;;;;60.70;18.47;;;;;;;6.23;100.00;101739.16;5092517;28;20048;-87
2022/11/29 09:43:28;;;;;;;90.20;17.10;;;;;;;6.53;100.00;101754.88;5094383;28;20035;-88
2022/11/29 09:46:08;;;;;;;90.65;17.17;;;;;;;6.50;100.00;101750.66;5093198;28;20126;-88
2022/11/29 09:49:20;;;;;;;72.82;18.33;;;;;;;6.55;100.00;101751.00;5092921;28;20016;-87
2022/11/29 09:52:16;;;;;;;88.43;16.27;;;;;;;6.56;100.00;101758.06;5073976;28;20043;-87
2022/11/29 09:55:17;;;;;;;79.72;17.45;;;;;;;6.52;100.00;101756.72;5092733;28;20030;-87
2022/11/29 09:57:47;;;;;;;67.07;15.82;;;;;;;6.60;100.00;101753.19;5093028;28;20494;-87
2022/11/29 10:00:21;;;;;;;59.50;13.48;;;;;;;6.64;100.00;101757.25;5092449;28;20031;-87
2022/11/29 10:06:33;;;;;;;64.72;12.85;;;;;;;6.67;100.00;101768.56;4999986;28;20116;-88
2022/11/29 10:12:48;;;;;;;55.88;13.77;;;;;;;6.88;100.00;101755.56;5093616;28;20486;-87
2022/11/29 10:18:57;;;;;;;64.43;11.85;;;;;;;6.85;100.00;101752.19;5051232;28;20512;-88
2022/11/29 10:21:56;;;;;;;52.55;12.68;;;;;;;6.92;100.00;101760.44;5034971;28;20033;-87
2022/11/29 10:28:13;;;;;;;47.70;12.48;;;;;;;7.07;100.00;101752.53;5093414;28;20043;-88
2022/11/29 10:30:34;;;;;;;43.75;11.80;;;;;;;7.20;100.00;101752.88;5090433;28;20028;-86
2022/11/29 10:33:14;;;;;;;39.03;12.30;;;;;;;7.22;100.00;101747.28;5092053;28;20047;-86
2022/11/29 10:35:46;;;;;;;79.57;12.95;;;;;;;7.16;100.00;101746.13;5092257;28;20036;-86
2022/11/29 10:38:23;;;;;;;;;;;;;;;;;;;;;
2022/11/29 10:40:57;;;;;;;46.65;11.23;;;;;;;7.16;100.00;101748.81;5094442;28;20024;-86
2022/11/29 10:43:25;;;;;;;84.32;12.10;;;;;;;7.13;100.00;101749.16;5093609;28;20050;-87
2022/11/29 10:45:55;;;;;;;60.65;11.93;;;;;;;7.06;100.00;101749.97;5092016;28;20124;-87
2022/11/29 10:48:32;;;;;;;49.55;11.43;;;;;;;7.06;100.00;101752.69;5093094;28;20035;-87
2022/11/29 10:50:59;;;;;;;58.65;12.13;;;;;;;6.99;100.00;101756.06;5093341;28;20358;-86
2022/11/29 10:53:27;;;;;;;98.47;12.73;;;;;;;6.95;100.00;101759.28;5075131;28;20082;-86
2022/11/29 10:56:21;;;;;;;76.82;13.45;;;;;;;6.94;100.00;101765.69;5092177;28;20453;-86
2022/11/29 11:02:19;;;;;;;83.72;12.75;;;;;;;6.77;100.00;101760.28;5093412;28;20081;-87
2022/11/29 11:04:46;;;;;;;44.22;12.70;;;;;;;6.89;100.00;101765.34;5092048;28;20020;-86
2022/11/29 11:07:38;;;;;;;68.63;11.77;;;;;;;6.91;100.00;101756.09;5092755;28;20066;-87
2022/11/29 11:17:38;;;;;;;60.72;11.57;;;;;;;6.96;100.00;101761.81;5010647;28;20044;-87
2022/11/29 11:23:41;;;;;;;88.03;12.07;;;;;;;6.97;100.00;101763.50;4994106;28;20190;-87
2022/11/29 11:26:10;;;;;;;45.25;12.15;;;;;;;7.02;100.00;101768.38;4978814;28;20038;-88
2022/11/29 11:28:48;;;;;;;95.47;13.13;;;;;;;7.05;100.00;101770.75;4995017;28;20076;-86
2022/11/29 11:31:36;;;;;;;68.90;11.82;;;;;;;7.11;100.00;101761.97;5037162;28;20029;-87
2022/11/29 11:34:19;;;;;;;42.72;12.02;;;;;;;7.25;100.00;101779.34;5074765;28;20131;-86
2022/11/29 11:36:47;;;;;;;41.05;13.23;;;;;;;7.26;100.00;101772.91;5074312;28;20036;-87
2022/11/29 11:39:24;;;;;;;54.28;13.35;;;;;;;7.20;100.00;101766.34;5074018;28;20029;-87
2022/11/29 11:51:24;;;;;;;44.38;13.57;;;;;;;7.29;100.00;101777.13;5035159;28;20577;-85
2022/11/29 11:53:54;;;;;;;76.90;14.15;;;;;;;7.32;100.00;101784.88;5074177;28;20127;-85
2022/11/29 11:56:20;;;;;;;42.75;12.93;;;;;;;7.45;100.00;101787.06;5094943;28;20032;-87
2022/11/29 11:58:51;;;;;;;53.00;13.20;;;;;;;7.65;100.00;101782.13;5095746;28;20539;-86
2022/11/29 12:01:29;;;;;;;63.30;13.23;;;;;;;7.82;100.00;101799.13;5095930;28;20063;-86
2022/11/29 12:04:02;;;;;;;45.13;13.98;;;;;;;7.85;100.00;101798.78;5077641;28;20060;-85
2022/11/29 12:06:51;;;;;;;31.67;12.13;;;;;;;7.82;100.00;101799.94;5095952;28;20025;-86
2022/11/29 12:09:39;;;;;;;37.67;13.30;;;;;;;7.71;100.00;101794.94;5094862;28;20024;-85
2022/11/29 12:12:31;;;;;;;32.55;12.88;;;;;;;7.75;100.00;101807.09;5094657;28;20050;-86
2022/11/29 12:14:58;;;;;;;38.60;14.02;;;;;;;7.76;100.00;101807.94;5094671;28;20081;-85
2022/11/29 12:17:37;;;;;;;43.47;14.63;;;;;;;7.88;100.00;101812.78;5094857;28;20444;-85
2022/11/29 12:20:21;;;;;;;46.78;14.70;;;;;;;8.00;100.00;101807.00;5094856;28;20039;-83
2022/11/29 12:22:54;;;;;;;38.58;13.60;;;;;;;8.04;100.00;101811.03;5094645;28;20081;-84
2022/11/29 12:25:29;;;;;;;39.40;14.20;;;;;;;8.13;100.00;101801.88;5094542;28;20085;-84
2022/11/29 12:27:54;;;;;;;50.22;15.07;;;;;;;8.13;100.00;101809.97;5094568;28;20032;-85
2022/11/29 12:30:20;;;;;;;46.03;15.53;;;;;;;8.05;100.00;101807.31;5094346;28;20040;-84
2022/11/29 12:33:08;;;;;;;42.97;14.55;;;;;;;8.00;100.00;101829.47;5093374;28;20567;-84
2022/11/29 12:36:12;;;;;;;52.15;15.05;;;;;;;7.87;100.00;101838.13;5095056;28;20024;-84
2022/11/29 12:38:41;;;;;;;45.25;15.52;;;;;;;7.87;100.00;101834.59;5093711;28;20043;-84
2022/11/29 12:41:25;;;;;;;45.08;15.23;;;;;;;7.98;100.00;101838.75;5094862;28;20040;-84
2022/11/29 12:44:04;;;;;;;50.13;16.58;;;;;;;8.00;100.00;101837.59;5094773;28;20034;-84
2022/11/29 12:46:30;;;;;;;54.38;15.45;;;;;;;8.00;100.00;101840.28;5095318;28;20122;-84
2022/11/29 12:49:13;;;;;;;63.58;14.60;;;;;;;8.03;100.00;101839.06;5093840;28;20056;-84
2022/11/29 12:52:03;;;;;;;93.03;17.42;;;;;;;7.85;100.00;101856.38;5094081;28;20376;-84
2022/11/29 12:54:49;;;;;;;65.63;17.67;;;;;;;7.68;100.00;101847.44;5093416;28;20472;-84
2022/11/29 12:57:27;;;;;;;82.47;17.97;;;;;;;7.63;100.00;101848.97;5042804;28;20036;-84
2022/11/29 13:00:11;;;;;;;67.00;17.80;;;;;;;7.54;100.00;101837.34;5093601;28;20058;-84
2022/11/29 13:02:55;;;;;;;105.25;17.48;;;;;;;7.52;100.00;101842.06;5093700;28;20460;-84
2022/11/29 13:05:41;;;;;;;114.95;18.48;;;;;;;7.49;100.00;101843.25;5095603;28;20081;-84
2022/11/29 13:08:18;;;;;;;79.85;17.48;;;;;;;7.50;100.00;101849.47;5095169;28;20036;-84
2022/11/29 13:11:02;;;;;;;90.73;17.07;;;;;;;7.45;100.00;101849.16;5094353;28;20032;-84
2022/11/29 13:13:41;;;;;;;83.95;17.65;;;;;;;7.40;100.00;101840.72;5094835;28;20380;-84
2022/11/29 13:16:37;;;;;;;59.08;17.00;;;;;;;7.45;100.00;101851.88;5094713;28;20032;-84
2022/11/29 13:19:24;;;;;;;65.35;18.00;;;;;;;7.45;100.00;101849.16;5093296;28;20037;-85
2022/11/29 13:22:12;;;;;;;64.78;18.83;;;;;;;7.49;100.00;101855.91;5093206;28;20040;-85
2022/11/29 13:24:45;;;;;;;66.37;19.70;;;;;;;7.46;100.00;101858.97;5094745;28;20028;-85
2022/11/29 13:27:21;;;;;;;56.72;19.58;;;;;;;7.44;100.00;101859.13;5093739;28;20031;-85